TRA84P EHAM-LICJ
Flight info
| Callsign | TRA84P |
|---|---|
| Flight time | N/A |
| Altitude | 35000 |
| Route | EDUPO Z739 MISGO DCT ASBON DCT TUSUK DCT BATUB DCT TIRUL M738 NATAG DCT LORLO DCT ADOSA DCT SOVAN DCT PEPIX DCT GIANO |
| Aircraft | B738/M-SDE2E3FGHIRWXY/LB1 |
Departure
| Time | N/A |
|---|---|
| Airport | Amsterdam Airport Schiphol (EHAM) |
Arrival
| Time | 2026-04-30 11:27 |
|---|---|
| Airport | Falcone–Borsellino Airport (LICJ) |
| Time | Latitude | Longitude | Altitude | Speed | Heading |
|---|---|---|---|---|---|
| 2026-04-30 11:18 | 38.23791 | 12.82062 | 6744 ft | 365 kts | 169° |
| 2026-04-30 11:19 | 38.23412 | 12.82249 | 6816 ft | 352 kts | 161° |
| 2026-04-30 11:19 | 38.21278 | 12.83194 | 6856 ft | 300 kts | 165° |
| 2026-04-30 11:19 | 38.19344 | 12.83918 | 6603 ft | 281 kts | 165° |
| 2026-04-30 11:20 | 38.17555 | 12.84550 | 6385 ft | 256 kts | 168° |
| 2026-04-30 11:20 | 38.15868 | 12.85026 | 5769 ft | 250 kts | 173° |
| 2026-04-30 11:20 | 38.14156 | 12.85264 | 5172 ft | 240 kts | 180° |
| 2026-04-30 11:20 | 38.12956 | 12.85253 | 4783 ft | 226 kts | 175° |
| 2026-04-30 11:21 | 38.12899 | 12.85260 | 4762 ft | 225 kts | 174° |
| 2026-04-30 11:22 | 38.11527 | 12.85877 | 4436 ft | 201 kts | 147° |
| 2026-04-30 11:22 | 38.10661 | 12.87237 | 3750 ft | 201 kts | 108° |
| 2026-04-30 11:22 | 38.10760 | 12.88894 | 3276 ft | 187 kts | 68° |
| 2026-04-30 11:22 | 38.11244 | 12.90381 | 2921 ft | 177 kts | 65° |
| 2026-04-30 11:23 | 38.11698 | 12.91772 | 2561 ft | 166 kts | 64° |
| 2026-04-30 11:23 | 38.12168 | 12.93077 | 2148 ft | 159 kts | 63° |
| 2026-04-30 11:23 | 38.13035 | 12.95569 | 1444 ft | 147 kts | 63° |
| 2026-04-30 11:24 | 38.13460 | 12.96823 | 1602 ft | 158 kts | 64° |
| 2026-04-30 11:24 | 38.13857 | 12.98052 | 1429 ft | 152 kts | 66° |
| 2026-04-30 11:24 | 38.14267 | 12.99394 | 1505 ft | 175 kts | 66° |
| 2026-04-30 11:25 | 38.15165 | 13.02036 | 1367 ft | 142 kts | 59° |
| 2026-04-30 11:25 | 38.15612 | 13.03218 | 1084 ft | 153 kts | 65° |
| 2026-04-30 11:25 | 38.16388 | 13.05620 | 505 ft | 139 kts | 63° |
| 2026-04-30 11:26 | 38.17194 | 13.07953 | 200 ft | 142 kts | 66° |
| 2026-04-30 11:26 | 38.17574 | 13.09076 | 50 ft | 134 kts | 67° |
| 2026-04-30 11:26 | 38.17899 | 13.10041 | 45 ft | 94 kts | 68° |
| 2026-04-30 11:27 | 38.18140 | 13.10760 | 50 ft | 82 kts | 67° |
| 2026-04-30 11:27 | 38.18350 | 13.11380 | 53 ft | 72 kts | 67° |
| 2026-04-30 11:27 | 38.18515 | 13.11863 | 54 ft | 32 kts | 53° |
| 2026-04-30 11:27 | 38.18593 | 13.11793 | 51 ft | 14 kts | 265° |
| 2026-04-30 11:28 | 38.18560 | 13.11394 | 53 ft | 25 kts | 247° |
| 2026-04-30 11:28 | 38.18522 | 13.11213 | 48 ft | 11 kts | 311° |
| 2026-04-30 11:28 | 38.18545 | 13.11112 | 50 ft | 13 kts | 244° |
| 2026-04-30 11:29 | 38.18522 | 13.10993 | 50 ft | 15 kts | 300° |
| 2026-04-30 11:29 | 38.18579 | 13.10953 | 48 ft | 14 kts | 347° |
| 2026-04-30 11:29 | 38.18621 | 13.10874 | 49 ft | 0 kts | 244° |